sensor_id;sensor_type;location;lat;lon;timestamp;temperature;humidity
33699;DHT22;20032;52.436;13.312;2022-12-29T00:02:01;8.20;99.90
33699;DHT22;20032;52.436;13.312;2022-12-29T00:04:26;8.20;99.90
33699;DHT22;20032;52.436;13.312;2022-12-29T00:06:52;8.20;99.90
33699;DHT22;20032;52.436;13.312;2022-12-29T00:09:18;8.20;99.90
33699;DHT22;20032;52.436;13.312;2022-12-29T00:11:43;8.20;99.90
33699;DHT22;20032;52.436;13.312;2022-12-29T00:14:10;8.20;99.90
33699;DHT22;20032;52.436;13.312;2022-12-29T00:16:55;8.20;99.90
33699;DHT22;20032;52.436;13.312;2022-12-29T00:19:21;8.20;99.90
33699;DHT22;20032;52.436;13.312;2022-12-29T00:22:10;8.20;99.90
33699;DHT22;20032;52.436;13.312;2022-12-29T00:24:55;8.20;99.90
33699;DHT22;20032;52.436;13.312;2022-12-29T00:27:41;8.30;99.90
33699;DHT22;20032;52.436;13.312;2022-12-29T00:30:26;8.30;99.90
33699;DHT22;20032;52.436;13.312;2022-12-29T00:33:15;8.30;99.90
33699;DHT22;20032;52.436;13.312;2022-12-29T00:36:04;8.30;99.90
33699;DHT22;20032;52.436;13.312;2022-12-29T00:38:35;8.30;99.90
33699;DHT22;20032;52.436;13.312;2022-12-29T00:41:22;8.30;99.90
33699;DHT22;20032;52.436;13.312;2022-12-29T00:44:08;8.30;99.90
33699;DHT22;20032;52.436;13.312;2022-12-29T00:46:37;8.30;99.90
33699;DHT22;20032;52.436;13.312;2022-12-29T00:49:05;8.30;99.90
33699;DHT22;20032;52.436;13.312;2022-12-29T00:51:51;8.30;99.90
33699;DHT22;20032;52.436;13.312;2022-12-29T00:54:17;8.30;99.90
33699;DHT22;20032;52.436;13.312;2022-12-29T00:56:45;8.30;99.90
33699;DHT22;20032;52.436;13.312;2022-12-29T00:59:10;8.20;99.90
33699;DHT22;20032;52.436;13.312;2022-12-29T01:01:37;8.30;99.90
33699;DHT22;20032;52.436;13.312;2022-12-29T01:04:03;8.30;99.90
33699;DHT22;20032;52.436;13.312;2022-12-29T01:06:29;8.30;99.90
33699;DHT22;20032;52.436;13.312;2022-12-29T01:08:54;8.30;99.90
33699;DHT22;20032;52.436;13.312;2022-12-29T01:11:40;8.30;99.90
33699;DHT22;20032;52.436;13.312;2022-12-29T01:14:06;8.30;99.90
33699;DHT22;20032;52.436;13.312;2022-12-29T01:16:32;8.30;99.90
33699;DHT22;20032;52.436;13.312;2022-12-29T01:18:58;8.30;99.90
33699;DHT22;20032;52.436;13.312;2022-12-29T01:21:23;8.30;99.90
33699;DHT22;20032;52.436;13.312;2022-12-29T01:23:49;8.30;99.90
33699;DHT22;20032;52.436;13.312;2022-12-29T01:26:16;8.30;99.90
33699;DHT22;20032;52.436;13.312;2022-12-29T01:28:43;8.40;99.90
33699;DHT22;20032;52.436;13.312;2022-12-29T01:31:10;8.40;99.90
33699;DHT22;20032;52.436;13.312;2022-12-29T01:33:35;8.40;99.90
33699;DHT22;20032;52.436;13.312;2022-12-29T01:36:02;8.40;99.90
33699;DHT22;20032;52.436;13.312;2022-12-29T01:38:28;8.50;99.90
33699;DHT22;20032;52.436;13.312;2022-12-29T01:40:53;8.50;99.90
33699;DHT22;20032;52.436;13.312;2022-12-29T01:43:19;8.40;99.90
33699;DHT22;20032;52.436;13.312;2022-12-29T01:45:50;8.40;99.90
33699;DHT22;20032;52.436;13.312;2022-12-29T01:48:18;8.30;99.90
33699;DHT22;20032;52.436;13.312;2022-12-29T01:50:49;8.40;99.90
33699;DHT22;20032;52.436;13.312;2022-12-29T01:53:19;8.30;99.90
33699;DHT22;20032;52.436;13.312;2022-12-29T01:55:49;8.40;99.90
33699;DHT22;20032;52.436;13.312;2022-12-29T01:58:18;8.40;99.90
33699;DHT22;20032;52.436;13.312;2022-12-29T02:00:45;8.40;99.90
33699;DHT22;20032;52.436;13.312;2022-12-29T02:03:11;8.40;99.90
33699;DHT22;20032;52.436;13.312;2022-12-29T02:05:47;8.40;99.90
33699;DHT22;20032;52.436;13.312;2022-12-29T02:08:14;8.50;99.90
33699;DHT22;20032;52.436;13.312;2022-12-29T02:10:40;8.50;99.90
33699;DHT22;20032;52.436;13.312;2022-12-29T02:13:06;8.50;99.90
33699;DHT22;20032;52.436;13.312;2022-12-29T02:15:56;8.50;99.90
33699;DHT22;20032;52.436;13.312;2022-12-29T02:21:19;8.50;99.90
33699;DHT22;20032;52.436;13.312;2022-12-29T02:24:05;8.50;99.90
33699;DHT22;20032;52.436;13.312;2022-12-29T02:27:09;8.60;99.90
33699;DHT22;20032;52.436;13.312;2022-12-29T02:32:56;8.60;99.90
33699;DHT22;20032;52.436;13.312;2022-12-29T02:35:33;8.70;99.90
33699;DHT22;20032;52.436;13.312;2022-12-29T02:38:09;8.80;99.90
33699;DHT22;20032;52.436;13.312;2022-12-29T02:41:04;8.80;99.90
33699;DHT22;20032;52.436;13.312;2022-12-29T02:43:54;8.80;99.90
33699;DHT22;20032;52.436;13.312;2022-12-29T02:47:26;8.80;99.90
33699;DHT22;20032;52.436;13.312;2022-12-29T02:49:13;8.80;99.90
33699;DHT22;20032;52.436;13.312;2022-12-29T02:51:50;8.80;99.90
33699;DHT22;20032;52.436;13.312;2022-12-29T02:54:18;8.90;99.90
33699;DHT22;20032;52.436;13.312;2022-12-29T03:03:48;9.00;99.90
33699;DHT22;20032;52.436;13.312;2022-12-29T03:08:18;9.00;99.90
33699;DHT22;20032;52.436;13.312;2022-12-29T03:13:37;9.10;99.90
33699;DHT22;20032;52.436;13.312;2022-12-29T03:16:45;9.10;99.90
33699;DHT22;20032;52.436;13.312;2022-12-29T03:19:32;9.10;99.90
33699;DHT22;20032;52.436;13.312;2022-12-29T03:22:03;9.20;99.90
33699;DHT22;20032;52.436;13.312;2022-12-29T03:24:54;9.20;99.90
33699;DHT22;20032;52.436;13.312;2022-12-29T03:27:27;9.20;99.90
33699;DHT22;20032;52.436;13.312;2022-12-29T03:30:00;9.20;99.90
33699;DHT22;20032;52.436;13.312;2022-12-29T03:32:31;9.20;99.90
33699;DHT22;20032;52.436;13.312;2022-12-29T03:34:57;9.20;99.90
33699;DHT22;20032;52.436;13.312;2022-12-29T03:37:29;9.20;99.90
33699;DHT22;20032;52.436;13.312;2022-12-29T03:39:56;9.30;99.90
33699;DHT22;20032;52.436;13.312;2022-12-29T03:42:25;9.30;99.90
33699;DHT22;20032;52.436;13.312;2022-12-29T03:44:54;9.30;99.90
33699;DHT22;20032;52.436;13.312;2022-12-29T03:47:21;9.30;99.90
33699;DHT22;20032;52.436;13.312;2022-12-29T03:49:46;9.30;99.90
33699;DHT22;20032;52.436;13.312;2022-12-29T03:52:12;9.30;99.90
33699;DHT22;20032;52.436;13.312;2022-12-29T03:54:38;9.30;99.90
33699;DHT22;20032;52.436;13.312;2022-12-29T03:57:03;9.30;99.90
33699;DHT22;20032;52.436;13.312;2022-12-29T03:59:29;9.40;99.90
33699;DHT22;20032;52.436;13.312;2022-12-29T04:01:55;9.40;99.90
33699;DHT22;20032;52.436;13.312;2022-12-29T04:04:20;9.40;99.90
33699;DHT22;20032;52.436;13.312;2022-12-29T04:06:46;9.40;99.90
33699;DHT22;20032;52.436;13.312;2022-12-29T04:09:12;9.50;99.90
33699;DHT22;20032;52.436;13.312;2022-12-29T04:11:37;9.40;99.90
33699;DHT22;20032;52.436;13.312;2022-12-29T04:14:03;9.50;99.90
33699;DHT22;20032;52.436;13.312;2022-12-29T04:16:28;9.50;99.90
33699;DHT22;20032;52.436;13.312;2022-12-29T04:18:53;9.50;99.90
33699;DHT22;20032;52.436;13.312;2022-12-29T04:21:19;9.50;99.90
33699;DHT22;20032;52.436;13.312;2022-12-29T04:23:44;9.50;99.90
33699;DHT22;20032;52.436;13.312;2022-12-29T04:26:10;9.60;99.90
33699;DHT22;20032;52.436;13.312;2022-12-29T04:28:36;9.60;99.90
33699;DHT22;20032;52.436;13.312;2022-12-29T04:31:03;9.60;99.90
33699;DHT22;20032;52.436;13.312;2022-12-29T04:33:29;9.60;99.90
33699;DHT22;20032;52.436;13.312;2022-12-29T04:35:54;9.60;99.90
33699;DHT22;20032;52.436;13.312;2022-12-29T04:38:21;9.60;99.90
33699;DHT22;20032;52.436;13.312;2022-12-29T04:40:48;9.60;99.90
33699;DHT22;20032;52.436;13.312;2022-12-29T04:43:13;9.60;99.90
33699;DHT22;20032;52.436;13.312;2022-12-29T04:45:43;9.60;99.90
33699;DHT22;20032;52.436;13.312;2022-12-29T04:48:09;9.60;99.90
33699;DHT22;20032;52.436;13.312;2022-12-29T04:50:35;9.60;99.90
33699;DHT22;20032;52.436;13.312;2022-12-29T04:53:00;9.60;99.90
33699;DHT22;20032;52.436;13.312;2022-12-29T04:55:26;9.70;99.90
33699;DHT22;20032;52.436;13.312;2022-12-29T04:57:51;9.60;99.90
33699;DHT22;20032;52.436;13.312;2022-12-29T05:00:17;9.60;99.90
33699;DHT22;20032;52.436;13.312;2022-12-29T05:02:42;9.60;99.90
33699;DHT22;20032;52.436;13.312;2022-12-29T05:05:08;9.60;99.90
33699;DHT22;20032;52.436;13.312;2022-12-29T05:07:34;9.70;99.90
33699;DHT22;20032;52.436;13.312;2022-12-29T05:10:00;9.70;99.90
33699;DHT22;20032;52.436;13.312;2022-12-29T05:12:25;9.70;99.90
33699;DHT22;20032;52.436;13.312;2022-12-29T05:14:51;9.70;99.90
33699;DHT22;20032;52.436;13.312;2022-12-29T05:17:16;9.70;99.90
33699;DHT22;20032;52.436;13.312;2022-12-29T05:19:41;9.70;99.90
33699;DHT22;20032;52.436;13.312;2022-12-29T05:22:07;9.70;99.90
33699;DHT22;20032;52.436;13.312;2022-12-29T05:24:33;9.70;99.90
33699;DHT22;20032;52.436;13.312;2022-12-29T05:26:58;9.80;99.90
33699;DHT22;20032;52.436;13.312;2022-12-29T05:29:23;9.80;99.90
33699;DHT22;20032;52.436;13.312;2022-12-29T05:31:49;9.80;99.90
33699;DHT22;20032;52.436;13.312;2022-12-29T05:34:14;9.80;99.90
33699;DHT22;20032;52.436;13.312;2022-12-29T05:36:40;9.90;99.90
33699;DHT22;20032;52.436;13.312;2022-12-29T05:39:05;9.90;99.90
33699;DHT22;20032;52.436;13.312;2022-12-29T05:41:33;9.90;99.90
33699;DHT22;20032;52.436;13.312;2022-12-29T05:43:58;9.90;99.90
33699;DHT22;20032;52.436;13.312;2022-12-29T05:46:24;10.00;99.90
33699;DHT22;20032;52.436;13.312;2022-12-29T05:48:49;10.00;99.90
33699;DHT22;20032;52.436;13.312;2022-12-29T05:51:15;10.00;99.90
33699;DHT22;20032;52.436;13.312;2022-12-29T05:53:40;10.10;99.90
33699;DHT22;20032;52.436;13.312;2022-12-29T05:56:06;10.20;99.90
33699;DHT22;20032;52.436;13.312;2022-12-29T05:58:31;10.20;99.90
33699;DHT22;20032;52.436;13.312;2022-12-29T06:00:57;10.20;99.90
33699;DHT22;20032;52.436;13.312;2022-12-29T06:03:22;10.20;99.90
33699;DHT22;20032;52.436;13.312;2022-12-29T06:05:48;10.20;99.90
33699;DHT22;20032;52.436;13.312;2022-12-29T06:08:13;10.20;99.90
33699;DHT22;20032;52.436;13.312;2022-12-29T06:10:40;10.30;99.90
33699;DHT22;20032;52.436;13.312;2022-12-29T06:13:05;10.30;99.90
33699;DHT22;20032;52.436;13.312;2022-12-29T06:15:32;10.40;99.90
33699;DHT22;20032;52.436;13.312;2022-12-29T06:17:58;10.40;99.90
33699;DHT22;20032;52.436;13.312;2022-12-29T06:20:23;10.40;99.90
33699;DHT22;20032;52.436;13.312;2022-12-29T06:22:49;10.40;99.90
33699;DHT22;20032;52.436;13.312;2022-12-29T06:25:15;10.40;99.90
33699;DHT22;20032;52.436;13.312;2022-12-29T06:27:41;10.40;99.90
33699;DHT22;20032;52.436;13.312;2022-12-29T06:30:08;10.40;99.90
33699;DHT22;20032;52.436;13.312;2022-12-29T06:32:34;10.50;99.90
33699;DHT22;20032;52.436;13.312;2022-12-29T06:34:59;10.50;99.90
33699;DHT22;20032;52.436;13.312;2022-12-29T06:37:25;10.40;99.90
33699;DHT22;20032;52.436;13.312;2022-12-29T06:39:50;10.40;99.90
33699;DHT22;20032;52.436;13.312;2022-12-29T06:42:16;10.40;99.90
33699;DHT22;20032;52.436;13.312;2022-12-29T06:44:41;10.40;99.90
33699;DHT22;20032;52.436;13.312;2022-12-29T06:47:07;10.40;99.90
33699;DHT22;20032;52.436;13.312;2022-12-29T06:49:32;10.50;99.90
33699;DHT22;20032;52.436;13.312;2022-12-29T06:51:58;10.40;99.90
33699;DHT22;20032;52.436;13.312;2022-12-29T06:54:25;10.40;99.90
33699;DHT22;20032;52.436;13.312;2022-12-29T06:56:50;10.40;99.90
33699;DHT22;20032;52.436;13.312;2022-12-29T06:59:15;10.30;99.90
33699;DHT22;20032;52.436;13.312;2022-12-29T07:01:41;10.30;99.90
33699;DHT22;20032;52.436;13.312;2022-12-29T07:04:06;10.30;99.90
33699;DHT22;20032;52.436;13.312;2022-12-29T07:06:32;10.40;99.90
33699;DHT22;20032;52.436;13.312;2022-12-29T07:08:57;10.30;99.90
33699;DHT22;20032;52.436;13.312;2022-12-29T07:11:23;10.30;99.90
33699;DHT22;20032;52.436;13.312;2022-12-29T07:13:49;10.20;99.90
33699;DHT22;20032;52.436;13.312;2022-12-29T07:16:14;10.30;99.90
33699;DHT22;20032;52.436;13.312;2022-12-29T07:18:40;10.20;99.90
33699;DHT22;20032;52.436;13.312;2022-12-29T07:21:05;10.20;99.90
33699;DHT22;20032;52.436;13.312;2022-12-29T07:23:31;10.20;99.90
33699;DHT22;20032;52.436;13.312;2022-12-29T07:26:05;10.20;99.90
33699;DHT22;20032;52.436;13.312;2022-12-29T07:28:32;10.20;99.90
33699;DHT22;20032;52.436;13.312;2022-12-29T07:30:58;10.20;99.90
33699;DHT22;20032;52.436;13.312;2022-12-29T07:33:24;10.20;99.90
33699;DHT22;20032;52.436;13.312;2022-12-29T07:35:50;10.20;99.90
33699;DHT22;20032;52.436;13.312;2022-12-29T07:38:15;10.20;99.90
33699;DHT22;20032;52.436;13.312;2022-12-29T07:40:42;10.20;99.90
33699;DHT22;20032;52.436;13.312;2022-12-29T07:43:07;10.20;99.90
33699;DHT22;20032;52.436;13.312;2022-12-29T07:45:33;10.20;99.90
33699;DHT22;20032;52.436;13.312;2022-12-29T07:47:58;10.20;99.90
33699;DHT22;20032;52.436;13.312;2022-12-29T07:50:24;10.30;99.90
33699;DHT22;20032;52.436;13.312;2022-12-29T07:52:49;10.30;99.90
33699;DHT22;20032;52.436;13.312;2022-12-29T07:55:15;10.20;99.90
33699;DHT22;20032;52.436;13.312;2022-12-29T07:57:41;10.30;99.90
33699;DHT22;20032;52.436;13.312;2022-12-29T08:00:07;10.30;99.90
33699;DHT22;20032;52.436;13.312;2022-12-29T08:02:33;10.40;99.90
33699;DHT22;20032;52.436;13.312;2022-12-29T08:04:58;10.30;99.90
33699;DHT22;20032;52.436;13.312;2022-12-29T08:07:23;10.40;99.90
33699;DHT22;20032;52.436;13.312;2022-12-29T08:09:49;10.40;99.90
33699;DHT22;20032;52.436;13.312;2022-12-29T08:12:15;10.40;99.90
33699;DHT22;20032;52.436;13.312;2022-12-29T08:14:40;10.40;99.90
33699;DHT22;20032;52.436;13.312;2022-12-29T08:17:05;10.40;99.90
33699;DHT22;20032;52.436;13.312;2022-12-29T08:19:31;10.50;99.90
33699;DHT22;20032;52.436;13.312;2022-12-29T08:21:56;10.50;99.90
33699;DHT22;20032;52.436;13.312;2022-12-29T08:24:22;10.60;99.90
33699;DHT22;20032;52.436;13.312;2022-12-29T08:26:47;10.50;99.90
33699;DHT22;20032;52.436;13.312;2022-12-29T08:29:13;10.50;99.90
33699;DHT22;20032;52.436;13.312;2022-12-29T08:31:38;10.50;99.90
33699;DHT22;20032;52.436;13.312;2022-12-29T08:34:04;10.50;99.90
33699;DHT22;20032;52.436;13.312;2022-12-29T08:36:30;10.50;99.90
33699;DHT22;20032;52.436;13.312;2022-12-29T08:38:56;10.60;99.90
33699;DHT22;20032;52.436;13.312;2022-12-29T08:41:21;10.60;99.90
33699;DHT22;20032;52.436;13.312;2022-12-29T08:43:49;10.60;99.90
33699;DHT22;20032;52.436;13.312;2022-12-29T08:46:15;10.50;99.90
33699;DHT22;20032;52.436;13.312;2022-12-29T08:48:41;10.50;99.90
33699;DHT22;20032;52.436;13.312;2022-12-29T08:51:07;10.50;99.90
33699;DHT22;20032;52.436;13.312;2022-12-29T08:53:33;10.60;99.90
33699;DHT22;20032;52.436;13.312;2022-12-29T08:56:00;10.70;99.90
33699;DHT22;20032;52.436;13.312;2022-12-29T08:58:26;10.70;99.90
33699;DHT22;20032;52.436;13.312;2022-12-29T09:00:56;10.70;99.90
33699;DHT22;20032;52.436;13.312;2022-12-29T09:03:23;10.80;99.90
33699;DHT22;20032;52.436;13.312;2022-12-29T09:05:50;10.80;99.90
33699;DHT22;20032;52.436;13.312;2022-12-29T09:08:16;10.80;99.90
33699;DHT22;20032;52.436;13.312;2022-12-29T09:10:42;10.80;99.90
33699;DHT22;20032;52.436;13.312;2022-12-29T09:13:08;10.80;99.90
33699;DHT22;20032;52.436;13.312;2022-12-29T09:15:33;10.80;99.90
33699;DHT22;20032;52.436;13.312;2022-12-29T09:17:59;10.80;99.90
33699;DHT22;20032;52.436;13.312;2022-12-29T09:20:24;10.90;99.90
33699;DHT22;20032;52.436;13.312;2022-12-29T09:22:50;10.90;99.90
33699;DHT22;20032;52.436;13.312;2022-12-29T09:25:16;11.00;99.90
33699;DHT22;20032;52.436;13.312;2022-12-29T09:27:42;11.20;99.90
33699;DHT22;20032;52.436;13.312;2022-12-29T09:30:10;11.30;99.90
33699;DHT22;20032;52.436;13.312;2022-12-29T09:32:37;11.30;99.90
33699;DHT22;20032;52.436;13.312;2022-12-29T09:35:03;11.40;99.90
33699;DHT22;20032;52.436;13.312;2022-12-29T09:37:29;11.50;99.90
33699;DHT22;20032;52.436;13.312;2022-12-29T09:39:54;11.40;99.90
33699;DHT22;20032;52.436;13.312;2022-12-29T09:47:37;11.30;99.90
33699;DHT22;20032;52.436;13.312;2022-12-29T09:50:15;11.40;99.90
33699;DHT22;20032;52.436;13.312;2022-12-29T09:55:20;11.50;99.90
33699;DHT22;20032;52.436;13.312;2022-12-29T09:57:56;11.60;99.90
33699;DHT22;20032;52.436;13.312;2022-12-29T10:00:27;11.80;99.90
33699;DHT22;20032;52.436;13.312;2022-12-29T10:02:59;11.80;99.90
33699;DHT22;20032;52.436;13.312;2022-12-29T10:05:38;11.80;99.90
33699;DHT22;20032;52.436;13.312;2022-12-29T10:08:22;11.80;99.90
33699;DHT22;20032;52.436;13.312;2022-12-29T10:10:56;11.70;99.90
33699;DHT22;20032;52.436;13.312;2022-12-29T10:13:55;11.80;99.90
33699;DHT22;20032;52.436;13.312;2022-12-29T10:16:16;11.80;99.90
33699;DHT22;20032;52.436;13.312;2022-12-29T10:19:03;12.00;99.90
33699;DHT22;20032;52.436;13.312;2022-12-29T10:23:53;12.10;99.90
33699;DHT22;20032;52.436;13.312;2022-12-29T10:24:39;12.10;99.90
33699;DHT22;20032;52.436;13.312;2022-12-29T10:27:10;12.20;99.90
33699;DHT22;20032;52.436;13.312;2022-12-29T10:29:42;12.30;99.90
33699;DHT22;20032;52.436;13.312;2022-12-29T10:32:34;12.40;99.90
33699;DHT22;20032;52.436;13.312;2022-12-29T10:35:05;12.50;99.90
33699;DHT22;20032;52.436;13.312;2022-12-29T10:37:41;12.50;99.90
33699;DHT22;20032;52.436;13.312;2022-12-29T10:40:18;12.50;99.90
33699;DHT22;20032;52.436;13.312;2022-12-29T10:42:50;12.60;99.90
33699;DHT22;20032;52.436;13.312;2022-12-29T10:45:18;12.60;99.90
33699;DHT22;20032;52.436;13.312;2022-12-29T10:48:04;12.60;99.90
33699;DHT22;20032;52.436;13.312;2022-12-29T10:50:31;12.50;99.90
33699;DHT22;20032;52.436;13.312;2022-12-29T10:53:00;12.50;99.90
33699;DHT22;20032;52.436;13.312;2022-12-29T10:55:30;12.40;99.90
33699;DHT22;20032;52.436;13.312;2022-12-29T10:58:01;12.40;99.90
33699;DHT22;20032;52.436;13.312;2022-12-29T11:00:30;12.40;99.90
33699;DHT22;20032;52.436;13.312;2022-12-29T11:05:39;12.40;99.90
33699;DHT22;20032;52.436;13.312;2022-12-29T11:08:14;12.40;99.90
33699;DHT22;20032;52.436;13.312;2022-12-29T11:10:42;12.30;99.90
33699;DHT22;20032;52.436;13.312;2022-12-29T11:13:14;12.30;99.90
33699;DHT22;20032;52.436;13.312;2022-12-29T11:15:46;12.30;99.90
33699;DHT22;20032;52.436;13.312;2022-12-29T11:20:46;12.20;99.90
33699;DHT22;20032;52.436;13.312;2022-12-29T11:26:23;12.10;99.90
33699;DHT22;20032;52.436;13.312;2022-12-29T11:31:41;12.00;99.90
33699;DHT22;20032;52.436;13.312;2022-12-29T11:34:07;11.90;99.90
33699;DHT22;20032;52.436;13.312;2022-12-29T11:36:34;11.90;99.90
33699;DHT22;20032;52.436;13.312;2022-12-29T11:39:00;11.80;99.90
33699;DHT22;20032;52.436;13.312;2022-12-29T11:41:28;11.70;99.90
33699;DHT22;20032;52.436;13.312;2022-12-29T11:43:57;11.70;99.90
33699;DHT22;20032;52.436;13.312;2022-12-29T11:46:28;11.60;99.90
33699;DHT22;20032;52.436;13.312;2022-12-29T11:48:54;11.50;99.90
33699;DHT22;20032;52.436;13.312;2022-12-29T11:51:26;11.40;99.90
33699;DHT22;20032;52.436;13.312;2022-12-29T11:53:58;11.40;99.90
33699;DHT22;20032;52.436;13.312;2022-12-29T11:56:42;11.40;99.90
33699;DHT22;20032;52.436;13.312;2022-12-29T12:01:57;11.20;99.90
33699;DHT22;20032;52.436;13.312;2022-12-29T12:04:26;11.10;99.90
33699;DHT22;20032;52.436;13.312;2022-12-29T12:07:15;11.00;99.90
33699;DHT22;20032;52.436;13.312;2022-12-29T12:09:48;10.70;99.90
33699;DHT22;20032;52.436;13.312;2022-12-29T12:12:36;10.60;99.90
33699;DHT22;20032;52.436;13.312;2022-12-29T12:15:02;10.50;99.90
33699;DHT22;20032;52.436;13.312;2022-12-29T12:17:33;10.50;99.90
33699;DHT22;20032;52.436;13.312;2022-12-29T12:20:34;10.50;99.90
33699;DHT22;20032;52.436;13.312;2022-12-29T12:23:25;10.50;99.90
33699;DHT22;20032;52.436;13.312;2022-12-29T12:25:59;10.50;99.90
33699;DHT22;20032;52.436;13.312;2022-12-29T12:28:50;10.50;99.90
33699;DHT22;20032;52.436;13.312;2022-12-29T12:33:59;10.40;99.90
33699;DHT22;20032;52.436;13.312;2022-12-29T12:39:41;10.40;99.90
33699;DHT22;20032;52.436;13.312;2022-12-29T12:45:24;10.30;99.90
33699;DHT22;20032;52.436;13.312;2022-12-29T12:48:05;10.20;99.90
33699;DHT22;20032;52.436;13.312;2022-12-29T12:50:40;10.20;99.90
33699;DHT22;20032;52.436;13.312;2022-12-29T12:53:21;10.10;99.90
33699;DHT22;20032;52.436;13.312;2022-12-29T12:56:13;10.20;99.90
33699;DHT22;20032;52.436;13.312;2022-12-29T13:01:26;10.30;99.90
33699;DHT22;20032;52.436;13.312;2022-12-29T13:04:40;10.50;99.90
33699;DHT22;20032;52.436;13.312;2022-12-29T13:07:02;10.50;99.90
33699;DHT22;20032;52.436;13.312;2022-12-29T13:09:44;10.40;99.90
33699;DHT22;20032;52.436;13.312;2022-12-29T13:12:17;10.60;99.90
33699;DHT22;20032;52.436;13.312;2022-12-29T13:14:59;11.00;99.90
33699;DHT22;20032;52.436;13.312;2022-12-29T13:17:52;11.20;99.90
33699;DHT22;20032;52.436;13.312;2022-12-29T13:25:51;11.20;99.90
33699;DHT22;20032;52.436;13.312;2022-12-29T13:31:12;10.90;99.90
33699;DHT22;20032;52.436;13.312;2022-12-29T13:36:25;10.70;99.90
33699;DHT22;20032;52.436;13.312;2022-12-29T13:39:04;10.70;99.90
33699;DHT22;20032;52.436;13.312;2022-12-29T13:41:36;10.70;99.90
33699;DHT22;20032;52.436;13.312;2022-12-29T13:44:03;10.70;99.90
33699;DHT22;20032;52.436;13.312;2022-12-29T13:46:35;10.70;99.90
33699;DHT22;20032;52.436;13.312;2022-12-29T13:49:08;10.70;99.90
33699;DHT22;20032;52.436;13.312;2022-12-29T13:51:40;10.70;99.90
33699;DHT22;20032;52.436;13.312;2022-12-29T13:59:52;10.60;99.90
33699;DHT22;20032;52.436;13.312;2022-12-29T14:02:49;10.60;99.90
33699;DHT22;20032;52.436;13.312;2022-12-29T14:07:47;10.50;99.90
33699;DHT22;20032;52.436;13.312;2022-12-29T14:14:11;10.50;99.90
33699;DHT22;20032;52.436;13.312;2022-12-29T14:15:54;10.40;99.90
33699;DHT22;20032;52.436;13.312;2022-12-29T14:18:25;10.40;99.90
33699;DHT22;20032;52.436;13.312;2022-12-29T14:20:57;10.40;99.90
33699;DHT22;20032;52.436;13.312;2022-12-29T14:23:44;10.30;99.90
33699;DHT22;20032;52.436;13.312;2022-12-29T14:26:14;10.30;99.90
33699;DHT22;20032;52.436;13.312;2022-12-29T14:28:44;10.30;99.90
33699;DHT22;20032;52.436;13.312;2022-12-29T14:39:04;10.20;99.90
33699;DHT22;20032;52.436;13.312;2022-12-29T14:41:37;10.20;99.90
33699;DHT22;20032;52.436;13.312;2022-12-29T14:46:55;10.20;99.90
33699;DHT22;20032;52.436;13.312;2022-12-29T14:49:25;10.20;99.90
33699;DHT22;20032;52.436;13.312;2022-12-29T14:51:54;10.10;99.90
33699;DHT22;20032;52.436;13.312;2022-12-29T14:57:06;10.10;99.90
33699;DHT22;20032;52.436;13.312;2022-12-29T14:59:34;10.10;99.90
33699;DHT22;20032;52.436;13.312;2022-12-29T15:02:03;10.10;99.90
33699;DHT22;20032;52.436;13.312;2022-12-29T15:04:32;10.10;99.90
33699;DHT22;20032;52.436;13.312;2022-12-29T15:06:59;10.10;99.90
33699;DHT22;20032;52.436;13.312;2022-12-29T15:09:29;10.00;99.90
33699;DHT22;20032;52.436;13.312;2022-12-29T15:12:14;10.00;99.90
33699;DHT22;20032;52.436;13.312;2022-12-29T15:14:53;10.00;99.90
33699;DHT22;20032;52.436;13.312;2022-12-29T15:17:28;10.00;99.90
33699;DHT22;20032;52.436;13.312;2022-12-29T15:19:56;10.00;99.90
33699;DHT22;20032;52.436;13.312;2022-12-29T15:22:22;10.00;99.90
33699;DHT22;20032;52.436;13.312;2022-12-29T15:24:50;10.00;99.90
33699;DHT22;20032;52.436;13.312;2022-12-29T15:27:19;10.10;99.90
33699;DHT22;20032;52.436;13.312;2022-12-29T15:29:46;10.10;99.90
33699;DHT22;20032;52.436;13.312;2022-12-29T15:32:22;10.10;99.90
33699;DHT22;20032;52.436;13.312;2022-12-29T15:34:50;10.10;99.90
33699;DHT22;20032;52.436;13.312;2022-12-29T15:37:19;10.10;99.90
33699;DHT22;20032;52.436;13.312;2022-12-29T15:39:45;10.00;99.90
33699;DHT22;20032;52.436;13.312;2022-12-29T15:45:04;9.90;99.90
33699;DHT22;20032;52.436;13.312;2022-12-29T15:47:31;9.90;99.90
33699;DHT22;20032;52.436;13.312;2022-12-29T15:50:04;9.90;99.90
33699;DHT22;20032;52.436;13.312;2022-12-29T15:52:32;9.80;99.90
33699;DHT22;20032;52.436;13.312;2022-12-29T15:54:58;9.80;99.90
33699;DHT22;20032;52.436;13.312;2022-12-29T15:57:28;9.80;99.90
33699;DHT22;20032;52.436;13.312;2022-12-29T15:59:55;9.80;99.90
33699;DHT22;20032;52.436;13.312;2022-12-29T16:02:23;9.80;99.90
33699;DHT22;20032;52.436;13.312;2022-12-29T16:04:49;9.90;99.90
33699;DHT22;20032;52.436;13.312;2022-12-29T16:07:26;9.90;99.90
33699;DHT22;20032;52.436;13.312;2022-12-29T16:10:00;9.90;99.90
33699;DHT22;20032;52.436;13.312;2022-12-29T16:12:32;9.90;99.90
33699;DHT22;20032;52.436;13.312;2022-12-29T16:14:59;10.00;99.90
33699;DHT22;20032;52.436;13.312;2022-12-29T16:17:28;10.00;99.90
33699;DHT22;20032;52.436;13.312;2022-12-29T16:20:57;10.00;99.90
33699;DHT22;20032;52.436;13.312;2022-12-29T16:22:47;10.10;99.90
33699;DHT22;20032;52.436;13.312;2022-12-29T16:25:20;10.10;99.90
33699;DHT22;20032;52.436;13.312;2022-12-29T16:27:47;10.00;99.90
33699;DHT22;20032;52.436;13.312;2022-12-29T16:32:49;10.00;99.90
33699;DHT22;20032;52.436;13.312;2022-12-29T16:35:24;10.00;99.90
33699;DHT22;20032;52.436;13.312;2022-12-29T16:40:38;9.90;99.90
33699;DHT22;20032;52.436;13.312;2022-12-29T16:43:27;9.90;99.90
33699;DHT22;20032;52.436;13.312;2022-12-29T16:46:11;9.90;99.90
33699;DHT22;20032;52.436;13.312;2022-12-29T16:48:52;10.00;99.90
33699;DHT22;20032;52.436;13.312;2022-12-29T16:51:31;10.00;99.90
33699;DHT22;20032;52.436;13.312;2022-12-29T16:53:58;10.10;99.90
33699;DHT22;20032;52.436;13.312;2022-12-29T16:56:26;10.10;99.90
33699;DHT22;20032;52.436;13.312;2022-12-29T16:59:59;10.10;99.90
33699;DHT22;20032;52.436;13.312;2022-12-29T17:01:43;10.10;99.90
33699;DHT22;20032;52.436;13.312;2022-12-29T17:04:11;10.20;99.90
33699;DHT22;20032;52.436;13.312;2022-12-29T17:06:37;10.20;99.90
33699;DHT22;20032;52.436;13.312;2022-12-29T17:09:16;10.20;99.90
33699;DHT22;20032;52.436;13.312;2022-12-29T17:11:42;10.20;99.90
33699;DHT22;20032;52.436;13.312;2022-12-29T17:14:36;10.20;99.90
33699;DHT22;20032;52.436;13.312;2022-12-29T17:17:12;10.20;99.90
33699;DHT22;20032;52.436;13.312;2022-12-29T17:19:38;10.30;99.90